createdAt,value
2023-01-25T00:01:44.347Z,103390.41
2023-01-25T00:08:52.556Z,103368.19
2023-01-25T00:15:54.195Z,103358.34
2023-01-25T00:22:55.840Z,103347.75
2023-01-25T00:29:57.579Z,103321.00
2023-01-25T00:37:03.607Z,103304.94
2023-01-25T00:44:05.424Z,103296.88
2023-01-25T00:51:07.164Z,103277.19
2023-01-25T00:58:09.061Z,103267.53
2023-01-25T01:05:11.809Z,103280.88
2023-01-25T01:12:13.849Z,103292.41
2023-01-25T01:19:17.185Z,103290.56
2023-01-25T01:26:21.577Z,103286.97
2023-01-25T01:33:23.836Z,103279.97
2023-01-25T01:40:25.794Z,103272.88
2023-01-25T01:47:31.112Z,103274.56
2023-01-25T01:54:38.825Z,103259.50
2023-01-25T02:01:43.104Z,103256.88
2023-01-25T02:08:44.982Z,103267.53
2023-01-25T02:15:48.203Z,103264.78
2023-01-25T02:23:12.928Z,103245.28
2023-01-25T02:30:16.309Z,103250.63
2023-01-25T02:37:18.886Z,103252.44
2023-01-25T02:44:28.988Z,103238.09
2023-01-25T02:51:33.749Z,103231.97
2023-01-25T02:58:35.462Z,103239.06
2023-01-25T03:05:37.255Z,103223.91
2023-01-25T03:12:39.116Z,103222.16
2023-01-25T03:19:41.298Z,103222.16
2023-01-25T03:27:01.588Z,103199.00
2023-01-25T03:34:09.503Z,103202.56
2023-01-25T03:41:15.564Z,103199.00
2023-01-25T03:48:20.101Z,103190.97
2023-01-25T03:55:22.706Z,103181.13
2023-01-25T04:02:24.491Z,103170.50
2023-01-25T04:09:26.203Z,103163.41
2023-01-25T04:16:31.460Z,103150.03
2023-01-25T04:23:51.705Z,103132.22
2023-01-25T04:30:54.740Z,103127.75
2023-01-25T04:37:59.294Z,103117.09
2023-01-25T04:45:08.662Z,103107.28
2023-01-25T04:52:11.577Z,103102.81
2023-01-25T04:59:14.855Z,103098.38
2023-01-25T05:06:17.618Z,103100.19
2023-01-25T05:13:19.667Z,103084.19
2023-01-25T05:20:22.331Z,103084.19
2023-01-25T05:27:24.204Z,103085.06
2023-01-25T05:34:28.761Z,103075.25
2023-01-25T05:41:30.697Z,103087.72
2023-01-25T05:48:33.450Z,103089.50
2023-01-25T05:55:36.710Z,103078.81
2023-01-25T06:02:43.088Z,103079.69
2023-01-25T06:09:50.284Z,103067.22
2023-01-25T06:16:52.912Z,103060.09
2023-01-25T06:24:14.007Z,103058.31
2023-01-25T06:31:16.913Z,103053.88
2023-01-25T06:38:18.552Z,103063.66
2023-01-25T06:45:20.309Z,103057.44
2023-01-25T06:52:21.931Z,103045.88
2023-01-25T06:59:23.551Z,103031.59
2023-01-25T07:06:25.925Z,103028.91
2023-01-25T07:13:28.106Z,103031.59
2023-01-25T07:20:29.774Z,103022.69
2023-01-25T07:27:33.792Z,103010.22
2023-01-25T07:34:35.372Z,102996.84
2023-01-25T07:41:36.953Z,103001.28
2023-01-25T07:48:39.194Z,102994.19
2023-01-25T07:55:40.829Z,102995.94
2023-01-25T08:02:43.169Z,102982.63
2023-01-25T08:09:44.846Z,102976.38
2023-01-25T08:16:46.428Z,102977.28
2023-01-25T08:23:48.134Z,102957.66
2023-01-25T08:30:57.452Z,102961.25
2023-01-25T08:37:59.683Z,102960.31
2023-01-25T08:45:02.649Z,102959.44
2023-01-25T08:52:04.402Z,102944.31
2023-01-25T08:59:06.105Z,102955.88
2023-01-25T09:06:07.978Z,102958.56
2023-01-25T09:13:09.590Z,102955.00
2023-01-25T09:20:11.559Z,102959.47
2023-01-25T09:27:13.292Z,102948.75
2023-01-25T09:34:15.219Z,102942.53
2023-01-25T09:41:49.355Z,102933.63
2023-01-25T09:49:15.588Z,102924.72
2023-01-25T09:56:23.748Z,102916.72
2023-01-25T10:03:27.460Z,102911.38
2023-01-25T10:10:39.917Z,102907.81
2023-01-25T10:17:41.799Z,102898.88
2023-01-25T10:24:55.732Z,102891.78
2023-01-25T10:32:10.839Z,102868.63
2023-01-25T10:39:12.633Z,102873.09
2023-01-25T10:46:23.792Z,102867.63
2023-01-25T10:53:29.485Z,102852.56
2023-01-25T11:00:41.010Z,102841.06
2023-01-25T11:07:42.667Z,102830.38
2023-01-25T11:14:44.353Z,102817.00
2023-01-25T11:21:53.369Z,102808.16
2023-01-25T11:29:10.446Z,102788.53
2023-01-25T11:36:25.164Z,102771.63
2023-01-25T11:43:45.590Z,102760.00
2023-01-25T11:50:55.883Z,102738.66
2023-01-25T11:58:03.657Z,102726.16
2023-01-25T12:05:26.729Z,102702.03
2023-01-25T12:12:34.179Z,102687.84
2023-01-25T12:19:44.993Z,102671.00
2023-01-25T12:26:49.780Z,102658.50
2023-01-25T12:33:56.725Z,102650.44
2023-01-25T12:41:11.239Z,102646.06
2023-01-25T12:48:23.745Z,102637.13
2023-01-25T12:55:25.382Z,102623.84
2023-01-25T13:02:47.038Z,102624.75
2023-01-25T13:09:59.621Z,102612.25
2023-01-25T13:17:12.657Z,102616.78
2023-01-25T13:24:16.712Z,102606.06
2023-01-25T13:31:51.527Z,102589.19
2023-01-25T13:38:54.226Z,102569.66
2023-01-25T13:45:55.941Z,102569.59
2023-01-25T13:53:01.908Z,102552.72
2023-01-25T14:00:10.649Z,102544.63
2023-01-25T14:07:16.081Z,102541.22
2023-01-25T14:14:40.939Z,102535.03
2023-01-25T14:21:42.535Z,102528.72
2023-01-25T14:28:51.261Z,102526.09
2023-01-25T14:36:24.350Z,102515.34
2023-01-25T14:43:26.786Z,102502.03
2023-01-25T14:50:38.825Z,102489.63
2023-01-25T14:57:40.783Z,102491.47
2023-01-25T15:04:53.817Z,102478.09
2023-01-25T15:12:00.008Z,102462.91
2023-01-25T15:19:01.694Z,102462.03
2023-01-25T15:26:15.222Z,102453.31
2023-01-25T15:33:24.765Z,102442.59
2023-01-25T15:40:26.375Z,102446.97
2023-01-25T15:47:28.061Z,102439.88
2023-01-25T15:54:29.750Z,102431.91
2023-01-25T16:01:31.591Z,102418.53
2023-01-25T16:08:34.603Z,102403.31
2023-01-25T16:15:37.330Z,102397.19
2023-01-25T16:22:38.913Z,102393.72
2023-01-25T16:29:40.582Z,102374.22
2023-01-25T16:36:42.362Z,102366.84
2023-01-25T16:43:44.713Z,102358.97
2023-01-25T16:50:46.369Z,102350.91
2023-01-25T16:57:51.311Z,102344.78
2023-01-25T17:04:52.999Z,102334.09
2023-01-25T17:11:54.876Z,102338.69
2023-01-25T17:19:04.487Z,102327.06
2023-01-25T17:26:07.679Z,102323.53
2023-01-25T17:33:09.532Z,102304.88
2023-01-25T17:40:12.149Z,102304.69
2023-01-25T17:47:13.983Z,102290.56
2023-01-25T17:54:15.692Z,102288.81
2023-01-25T18:01:19.180Z,102283.47
2023-01-25T18:08:21.097Z,102274.63
2023-01-25T18:15:23.599Z,102277.34
2023-01-25T18:22:25.653Z,102265.81
2023-01-25T18:29:54.435Z,102252.50
2023-01-25T18:36:59.245Z,102256.09
2023-01-25T18:44:00.852Z,102263.94
2023-01-25T18:51:07.634Z,102251.44
2023-01-25T18:58:12.231Z,102240.66
2023-01-25T19:05:14.400Z,102227.31
2023-01-25T19:12:16.073Z,102212.41
2023-01-25T19:19:17.881Z,102203.53
2023-01-25T19:26:20.366Z,102195.38
2023-01-25T19:33:22.047Z,102193.75
2023-01-25T19:40:24.943Z,102177.53
2023-01-25T19:47:26.597Z,102164.50
2023-01-25T19:54:28.366Z,102155.44
2023-01-25T20:01:30.263Z,102144.94
2023-01-25T20:08:32.142Z,102144.13
2023-01-25T20:15:33.767Z,102132.47
2023-01-25T20:22:35.729Z,102121.84
2023-01-25T20:29:37.452Z,102125.59
2023-01-25T20:36:39.622Z,102131.63
2023-01-25T20:43:47.770Z,102127.19
2023-01-25T20:50:49.612Z,102122.69
2023-01-25T20:57:54.098Z,102112.97
2023-01-25T21:04:56.243Z,102100.47
2023-01-25T21:11:58.136Z,102111.19
2023-01-25T21:19:05.236Z,102094.28
2023-01-25T21:26:16.863Z,102096.91
2023-01-25T21:33:18.713Z,102080.09
2023-01-25T21:40:26.698Z,102072.97
2023-01-25T21:47:32.354Z,102066.78
2023-01-25T21:54:35.748Z,102072.09
2023-01-25T22:01:41.800Z,102074.81
2023-01-25T22:08:44.594Z,102064.09
2023-01-25T22:15:46.252Z,102062.31
2023-01-25T22:22:48.954Z,102062.38
2023-01-25T22:29:50.655Z,102054.34
2023-01-25T22:36:52.262Z,102050.13
2023-01-25T22:43:54.984Z,102032.19
2023-01-25T22:51:06.947Z,102031.19
2023-01-25T22:58:09.838Z,102027.72
2023-01-25T23:05:11.703Z,102021.53
2023-01-25T23:12:13.407Z,102016.13
2023-01-25T23:19:15.072Z,102002.88
2023-01-25T23:26:17.536Z,101988.69
2023-01-25T23:33:19.274Z,101992.25
2023-01-25T23:40:21.019Z,101975.41
2023-01-25T23:47:22.764Z,101966.47
2023-01-25T23:54:26.911Z,101964.72
